Nsu Obelisk — H9RZ — position and weather

sailwx.info

Track history (hours):
 
Tides and Currents Weather Stations Pressure Air Temp Water Temp Dewpoint Dewpoint Depression Visibility Wind Speed Wind Dir Waves Ship Positions

Nsu Obelisk

Last reported at 2017-Sep-30 02:00 UTC. Time now 2017-Oct-19 23:30 UTC.
Position N 48°21' W 124°08'.
Warning: this ship's position is 19 days out of date.

Length 299 m; draft 17.6 m.

Type: Cargo ship. MMSI: 357348000.

Date/timePositionNaut miles runAvg speedWind from/ knotsBaromVisibWave heightAir tempDewpointWater temp
2017-Sep-30 02:00N 48°21' W 124°08'713.2
2017-Sep-30 01:30N 48°18' W 123°59'712.9
2017-Sep-30 01:00N 48°17' W 123°49'612.8
2017-Sep-30 00:30N 48°16' W 123°40'612.2
2017-Sep-29 23:59N 48°16' W 123°30'611.8
2017-Sep-29 23:30N 48°21' W 123°26'4 7.3
2017-Sep-29 23:00N 48°23' W 123°22'5 9.9
2017-Sep-29 22:30N 48°24' W 123°15'4 8.7
2017-Sep-29 22:00N 48°28' W 123°12'5 9.6
2017-Sep-29 21:30N 48°33' W 123°13'5 9.1
2017-Sep-29 21:00N 48°37' W 123°14'5 9.4
2017-Sep-29 20:30N 48°42' W 123°15'510.9
2017-Sep-29 20:00N 48°44' W 123°08'611.0
2017-Sep-29 19:30N 48°47' W 123°01'611.3
2017-Sep-29 19:00N 48°53' W 123°03'611.3
2017-Sep-29 18:30N 48°58' W 123°07'3 6.5
2017-Sep-29 18:00N 49°00' W 123°10'0 0.4
2017-Sep-29 17:28N 49°01' W 123°10'0 0.0
2017-Sep-29 16:55N 49°01' W 123°10'0 0.0
2017-Sep-29 16:28N 49°01' W 123°10'0 0.0
2017-Sep-29 15:58N 49°01' W 123°10'0 0.0
2017-Sep-29 15:25N 49°01' W 123°10'0 0.0
2017-Sep-29 14:55N 49°01' W 123°10'0 0.0
2017-Sep-29 14:25N 49°01' W 123°10'0 0.0
2017-Sep-29 13:58N 49°01' W 123°10'0 0.0
2017-Sep-29 12:43N 49°01' W 123°10'0 0.0
2017-Sep-29 12:19N 49°01' W 123°10'0 0.0
2017-Sep-29 11:55N 49°01' W 123°10'0 0.0
2017-Sep-29 11:25N 49°01' W 123°10'0 0.0
2017-Sep-29 10:49N 49°01' W 123°10'0 0.0
2017-Sep-29 10:28N 49°01' W 123°10'0 0.0
2017-Sep-29 09:49N 49°01' W 123°10'0 0.0
2017-Sep-29 09:25N 49°01' W 123°10'0 0.0
2017-Sep-29 08:55N 49°01' W 123°10'0 0.0
2017-Sep-29 08:25N 49°01' W 123°10'0 0.0
2017-Sep-29 07:58N 49°01' W 123°10'0 0.0
2017-Sep-29 07:28N 49°01' W 123°10'0 0.0
2017-Sep-29 06:58N 49°01' W 123°10'0 0.0
2017-Sep-29 06:28N 49°01' W 123°10'0 0.0
2017-Sep-29 05:58N 49°01' W 123°10'0 0.0
2017-Sep-29 05:25N 49°01' W 123°10'0 0.0
2017-Sep-29 04:55N 49°01' W 123°10'0 0.0
2017-Sep-29 04:13N 49°01' W 123°10'0 0.0
2017-Sep-29 03:55N 49°01' W 123°10'0 0.0
2017-Sep-29 03:25N 49°01' W 123°10'0 0.0
2017-Sep-29 02:58N 49°01' W 123°10'0 0.0
2017-Sep-29 02:28N 49°01' W 123°10'0 0.0
2017-Sep-29 01:58N 49°01' W 123°10'0 0.0
2017-Sep-29 01:25N 49°01' W 123°10'0 0.0
2017-Sep-29 00:58N 49°01' W 123°10'0 0.0
2017-Sep-29 00:28N 49°01' W 123°10'0 0.0
2017-Sep-28 23:55N 49°01' W 123°10'0 0.0
2017-Sep-28 23:19N 49°01' W 123°10'0 0.0
2017-Sep-28 22:58N 49°01' W 123°10'0 0.0
2017-Sep-28 22:28N 49°01' W 123°10'0 0.0
2017-Sep-28 21:58N 49°01' W 123°10'0 0.0
2017-Sep-28 21:28N 49°01' W 123°10'0 0.0
2017-Sep-28 20:58N 49°01' W 123°10'0 0.0
2017-Sep-28 20:28N 49°01' W 123°10'0 0.0
2017-Sep-28 19:55N 49°01' W 123°10'0 0.0
2017-Sep-28 19:19N 49°01' W 123°10'0 0.0
2017-Sep-28 18:58N 49°01' W 123°10'0 0.0
2017-Sep-28 18:25N 49°01' W 123°10'0 0.0
2017-Sep-28 17:55N 49°01' W 123°10'0 0.0
2017-Sep-28 17:25N 49°01' W 123°10'0 0.0
2017-Sep-28 16:49N 49°01' W 123°10'0 0.0
2017-Sep-28 16:28N 49°01' W 123°10'0 0.0
2017-Sep-28 15:58N 49°01' W 123°10'0 0.0
2017-Sep-28 15:28N 49°01' W 123°10'0 0.0
2017-Sep-28 14:58N 49°01' W 123°10'0 0.0
2017-Sep-28 14:25N 49°01' W 123°10'0 0.0
2017-Sep-28 13:55N 49°01' W 123°10'0 0.0
2017-Sep-28 13:25N 49°01' W 123°10'0 0.0
2017-Sep-28 12:58N 49°01' W 123°10'0 0.0
2017-Sep-28 12:28N 49°01' W 123°10'0 0.0
2017-Sep-28 11:55N 49°01' W 123°10'0 0.0
2017-Sep-28 11:25N 49°01' W 123°10'0 0.0
2017-Sep-28 10:55N 49°01' W 123°10'0 0.0
2017-Sep-28 10:28N 49°01' W 123°10'0 0.0
2017-Sep-28 09:58N 49°01' W 123°10'0 0.0
2017-Sep-28 09:25N 49°01' W 123°10'0 0.0
2017-Sep-28 08:55N 49°01' W 123°10'0 0.0
2017-Sep-28 08:25N 49°01' W 123°10'0 0.0
2017-Sep-28 07:58N 49°01' W 123°10'0 0.0
2017-Sep-28 07:28N 49°01' W 123°10'0 0.0
2017-Sep-28 06:55N 49°01' W 123°10'0 0.0
2017-Sep-28 06:25N 49°01' W 123°10'0 0.0
2017-Sep-28 05:55N 49°01' W 123°10'0 0.0
2017-Sep-28 05:28N 49°01' W 123°10'0 0.0
2017-Sep-28 04:58N 49°01' W 123°10'0 0.0
2017-Sep-28 04:28N 49°01' W 123°10'0 0.0
2017-Sep-28 03:55N 49°01' W 123°10'0 0.0
2017-Sep-28 03:25N 49°01' W 123°10'0 0.0
2017-Sep-28 02:55N 49°01' W 123°10'0 0.0
2017-Sep-28 02:28N 49°01' W 123°10'0 0.0
2017-Sep-28 01:58N 49°01' W 123°10'0 0.0
2017-Sep-28 01:28N 49°01' W 123°10'0 0.0
2017-Sep-28 00:55N 49°01' W 123°10'0 0.0
2017-Sep-28 00:25N 49°01' W 123°10'0 0.0
2017-Sep-27 23:58N 49°01' W 123°10'0 0.0
2017-Sep-27 23:25N 49°01' W 123°10'0 0.0
2017-Sep-27 22:55N 49°01' W 123°10'0 0.0
2017-Sep-27 22:25N 49°01' W 123°10'0 0.0
2017-Sep-27 21:49N 49°01' W 123°10'0 0.0
2017-Sep-27 21:25N 49°01' W 123°10'0 0.0
2017-Sep-27 20:43N 49°01' W 123°10'0 0.0
2017-Sep-27 20:25N 49°01' W 123°10'0 0.0
2017-Sep-27 19:55N 49°01' W 123°10'0 0.0
2017-Sep-27 19:19N 49°01' W 123°10'0 0.0
2017-Sep-27 18:55N 49°01' W 123°10'0 0.0
2017-Sep-27 18:28N 49°01' W 123°10'0 0.0
2017-Sep-27 17:58N 49°01' W 123°10'0 0.0
2017-Sep-27 17:25N 49°01' W 123°10'0 0.0
2017-Sep-27 16:55N 49°01' W 123°10'0 0.0
2017-Sep-27 16:28N 49°01' W 123°10'0 0.0
2017-Sep-27 15:43N 49°01' W 123°10'0 0.0
2017-Sep-27 15:28N 49°01' W 123°10'0 0.0
2017-Sep-27 14:58N 49°01' W 123°10'0 0.0
2017-Sep-27 14:28N 49°01' W 123°10'0 0.0
2017-Sep-27 13:58N 49°01' W 123°10'0 0.0
2017-Sep-27 13:25N 49°01' W 123°10'0 0.0
2017-Sep-27 12:58N 49°01' W 123°10'0 0.0
2017-Sep-27 12:07N 49°01' W 123°10'0 0.0
2017-Sep-27 11:55N 49°01' W 123°10'0 0.0
2017-Sep-27 11:28N 49°01' W 123°10'0 0.0
2017-Sep-27 10:58N 49°01' W 123°10'0 0.0
2017-Sep-27 10:28N 49°01' W 123°10'0 0.0
2017-Sep-27 09:58N 49°01' W 123°10'0 0.0
2017-Sep-27 09:28N 49°01' W 123°10'0 0.0
2017-Sep-27 08:55N 49°01' W 123°10'0 0.0
2017-Sep-27 08:25N 49°01' W 123°10'0 0.0
2017-Sep-27 07:58N 49°01' W 123°10'0 0.0
2017-Sep-27 07:28N 49°01' W 123°10'0 0.0
2017-Sep-27 06:55N 49°01' W 123°10'0 0.0
2017-Sep-27 05:49N 49°01' W 123°10'0 0.0
2017-Sep-27 05:19N 49°01' W 123°10'0 0.0
2017-Sep-27 04:58N 49°01' W 123°10'0 0.0
2017-Sep-27 04:25N 49°01' W 123°10'0 0.0
2017-Sep-27 03:58N 49°01' W 123°10'0 0.0
2017-Sep-27 03:28N 49°01' W 123°10'0 0.0
2017-Sep-27 02:40N 49°01' W 123°10'0 0.0
2017-Sep-27 02:28N 49°01' W 123°10'0 0.0
2017-Sep-27 01:55N 49°01' W 123°10'0 0.0
2017-Sep-27 01:07N 49°01' W 123°10'0 0.0
2017-Sep-27 00:52N 49°01' W 123°10'0 0.0
2017-Sep-27 00:28N 49°01' W 123°10'0 0.0
2017-Sep-26 23:52N 49°01' W 123°10'0 0.0
2017-Sep-26 23:28N 49°01' W 123°10'0 0.0
2017-Sep-26 22:55N 49°01' W 123°10'0 0.0
2017-Sep-26 22:28N 49°01' W 123°10'0 0.0
2017-Sep-26 21:58N 49°01' W 123°10'0 0.0
2017-Sep-26 21:25N 49°01' W 123°10'0 0.0
2017-Sep-26 20:43N 49°01' W 123°10'0 0.0
2017-Sep-26 20:22N 49°01' W 123°10'0 0.0
2017-Sep-26 19:58N 49°01' W 123°10'0 0.0
2017-Sep-26 19:25N 49°01' W 123°10'0 0.0
2017-Sep-26 18:55N 49°01' W 123°10'0 0.0
2017-Sep-26 18:25N 49°01' W 123°10'0 0.0
2017-Sep-26 17:52N 49°01' W 123°10'0 0.0
2017-Sep-26 17:22N 49°01' W 123°10'0 0.0
2017-Sep-26 16:58N 49°01' W 123°10'0 0.0
2017-Sep-26 16:25N 49°01' W 123°10'0 0.0
2017-Sep-26 15:58N 49°01' W 123°10'0 0.0
2017-Sep-26 15:01N 49°01' W 123°10'0 0.0
2017-Sep-26 14:55N 49°01' W 123°10'0 0.0
2017-Sep-26 14:19N 49°01' W 123°10'0 0.0
2017-Sep-26 13:55N 49°01' W 123°10'0 0.0
2017-Sep-26 13:25N 49°01' W 123°10'0 0.0
2017-Sep-26 12:55N 49°01' W 123°10'0 0.7
2017-Sep-26 12:30N 49°01' W 123°10'2 3.1
2017-Sep-26 12:00N 49°01' W 123°13'2 4.0
2017-Sep-26 11:31N 49°01' W 123°16'3 5.2
2017-Sep-26 11:00N 49°01' W 123°20'3 5.2
2017-Sep-26 10:31N 49°03' W 123°23'3 6.3
2017-Sep-26 10:00N 49°06' W 123°24'611.2
2017-Sep-26 09:30N 49°12' W 123°22'611.2
2017-Sep-26 09:00N 49°17' W 123°20'4 7.5
2017-Sep-26 08:31N 49°18' W 123°14'0 0.1
2017-Sep-26 07:58N 49°18' W 123°14'0 0.0
2017-Sep-26 07:28N 49°18' W 123°14'0 0.1
2017-Sep-26 07:01N 49°18' W 123°14'0 0.0
2017-Sep-26 06:31N 49°18' W 123°14'0 0.0
2017-Sep-26 05:58N 49°18' W 123°14'0 0.1
2017-Sep-26 05:28N 49°18' W 123°14'0 0.1
2017-Sep-26 04:58N 49°18' W 123°14'0 0.1
2017-Sep-26 04:22N 49°18' W 123°14'0 0.0
2017-Sep-26 03:58N 49°18' W 123°14'0 0.0
2017-Sep-26 03:28N 49°18' W 123°14'0 0.0
2017-Sep-26 02:58N 49°18' W 123°14'0 0.1
2017-Sep-26 02:28N 49°18' W 123°14'0 0.0
2017-Sep-26 01:58N 49°18' W 123°14'0 0.0
2017-Sep-26 01:28N 49°18' W 123°14'0 0.1
2017-Sep-26 00:58N 49°18' W 123°14'0 0.0
2017-Sep-26 00:28N 49°18' W 123°14'0 0.1
2017-Sep-25 23:58N 49°18' W 123°14'0 0.1
2017-Sep-25 23:31N 49°18' W 123°14'0 0.0
2017-Sep-25 22:58N 49°18' W 123°14'0 0.2
2017-Sep-25 22:31N 49°18' W 123°14'0 0.1
2017-Sep-25 21:58N 49°18' W 123°14'0 0.2
2017-Sep-25 21:31N 49°18' W 123°14'0 0.1
2017-Sep-25 20:58N 49°18' W 123°15'0 0.0
2017-Sep-25 20:13N 49°18' W 123°15'0 0.0
2017-Sep-25 19:55N 49°18' W 123°15'0 0.1
2017-Sep-25 19:25N 49°18' W 123°15'0 0.1
2017-Sep-25 18:58N 49°18' W 123°15'0 0.0
2017-Sep-25 18:25N 49°18' W 123°15'0 0.1
2017-Sep-25 17:58N 49°18' W 123°15'0 0.2
2017-Sep-25 17:25N 49°18' W 123°15'0 0.1
2017-Sep-25 17:01N 49°18' W 123°15'0 0.0
2017-Sep-25 16:25N 49°18' W 123°15'0 0.1
2017-Sep-25 15:58N 49°18' W 123°15'0 0.2
2017-Sep-25 15:28N 49°18' W 123°15'0 0.2
2017-Sep-25 14:58N 49°18' W 123°14'0 0.2
2017-Sep-25 14:31N 49°18' W 123°14'0 0.2
2017-Sep-25 13:58N 49°18' W 123°14'0 0.0
2017-Sep-25 13:28N 49°18' W 123°14'0 0.0
2017-Sep-25 12:55N 49°18' W 123°14'0 0.0
2017-Sep-25 12:28N 49°18' W 123°14'0 0.0
2017-Sep-25 11:58N 49°18' W 123°14'0 0.0
2017-Sep-25 11:28N 49°18' W 123°14'0 0.0
2017-Sep-25 10:58N 49°18' W 123°14'0 0.1
2017-Sep-25 10:28N 49°18' W 123°14'0 0.1
2017-Sep-25 09:58N 49°18' W 123°14'0 0.0
2017-Sep-25 09:28N 49°18' W 123°14'0 0.0
2017-Sep-25 08:58N 49°18' W 123°14'0 0.0
2017-Sep-25 08:31N 49°18' W 123°14'0 0.0
2017-Sep-25 08:01N 49°18' W 123°14'0 0.1
2017-Sep-25 07:31N 49°18' W 123°14'0 0.0
2017-Sep-25 06:58N 49°18' W 123°14'0 0.0
2017-Sep-25 06:28N 49°18' W 123°14'0 0.1
2017-Sep-25 05:58N 49°18' W 123°14'0 0.1
2017-Sep-25 05:31N 49°18' W 123°14'0 0.0
2017-Sep-25 04:58N 49°18' W 123°14'0 0.1
2017-Sep-25 04:28N 49°18' W 123°14'0 0.2
2017-Sep-25 03:58N 49°18' W 123°14'0 0.1
2017-Sep-25 03:31N 49°18' W 123°14'0 0.2
2017-Sep-25 03:01N 49°18' W 123°14'0 0.1
2017-Sep-25 02:28N 49°18' W 123°14'0 0.1
2017-Sep-25 01:58N 49°18' W 123°14'0 0.0
2017-Sep-25 01:31N 49°18' W 123°14'0 0.0
2017-Sep-25 00:58N 49°18' W 123°14'0 0.1
2017-Sep-25 00:28N 49°18' W 123°14'0 0.0
2017-Sep-25 00:01N 49°18' W 123°14'0 0.0
2017-Sep-24 23:31N 49°18' W 123°14'0 0.0
2017-Sep-24 23:01N 49°18' W 123°14'0 0.0
2017-Sep-24 22:28N 49°18' W 123°14'0 0.0
2017-Sep-24 22:01N 49°18' W 123°14'0 0.0
2017-Sep-24 21:28N 49°18' W 123°14'0 0.1
2017-Sep-24 21:01N 49°18' W 123°14'0 0.0
2017-Sep-24 20:31N 49°18' W 123°14'0 0.0
2017-Sep-24 19:58N 49°18' W 123°14'0 0.1
2017-Sep-24 19:28N 49°18' W 123°14'0 0.2
2017-Sep-24 18:58N 49°18' W 123°14'0 0.2
2017-Sep-24 18:28N 49°18' W 123°14'0 0.1
2017-Sep-24 17:58N 49°18' W 123°14'0 0.0
2017-Sep-24 17:28N 49°18' W 123°14'0 0.1
2017-Sep-24 16:58N 49°18' W 123°15'0 0.0
2017-Sep-24 16:28N 49°18' W 123°15'0 0.1
2017-Sep-24 16:01N 49°18' W 123°15'0 0.3
2017-Sep-24 15:31N 49°18' W 123°15'0 0.3
2017-Sep-24 15:01N 49°18' W 123°14'0 0.2
2017-Sep-24 14:28N 49°18' W 123°14'0 0.0
2017-Sep-24 13:58N 49°18' W 123°14'0 0.0
2017-Sep-24 13:28N 49°18' W 123°14'0 0.0
2017-Sep-24 12:58N 49°18' W 123°14'0 0.1
2017-Sep-24 12:28N 49°18' W 123°14'0 0.1
2017-Sep-24 11:58N 49°18' W 123°14'0 0.1
2017-Sep-24 11:28N 49°18' W 123°14'0 0.0
2017-Sep-24 10:58N 49°18' W 123°14'0 0.0
2017-Sep-24 10:28N 49°18' W 123°14'0 0.0
2017-Sep-24 10:01N 49°18' W 123°14'0 0.2
2017-Sep-24 09:28N 49°18' W 123°14'0 0.2
2017-Sep-24 08:58N 49°18' W 123°14'0 0.4
2017-Sep-24 08:28N 49°18' W 123°15'0 0.1
2017-Sep-24 08:00N 49°18' W 123°15'2 4.0
2017-Sep-24 07:30N 49°17' W 123°17'4 8.5
2017-Sep-24 07:00N 49°13' W 123°19'713.4
2017-Sep-24 06:30N 49°06' W 123°20'611.9
2017-Sep-24 06:00N 49°01' W 123°16'713.0
2017-Sep-24 05:30N 48°57' W 123°09'612.2
2017-Sep-24 05:00N 48°52' W 123°03'510.2
2017-Sep-24 04:30N 48°47' W 123°02'712.8
2017-Sep-24 03:59N 48°43' W 123°10'5 9.6
2017-Sep-24 03:30N 48°39' W 123°14'713.5
2017-Sep-24 03:00N 48°32' W 123°11'713.4
2017-Sep-24 02:30N 48°26' W 123°10'714.0
2017-Sep-24 02:00N 48°22' W 123°20'5 9.3
2017-Sep-24 01:31N 48°19' W 123°24'510.0
2017-Sep-24 01:01N 48°14' W 123°28'612.7
2017-Sep-24 00:31N 48°13' W 123°38'714.0
2017-Sep-24 00:00N 48°13' W 123°48'714.1
2017-Sep-23 23:29N 48°15' W 123°59'714.1
2017-Sep-23 23:00N 48°17' W 124°08'713.4
2017-Sep-23 22:30N 48°20' W 124°17'713.2
2017-Sep-23 22:00N 48°23' W 124°26'713.2
2017-Sep-23 21:30N 48°26' W 124°35'714.0
2017-Sep-23 21:00N 48°29' W 124°45'713.6
2017-Sep-23 20:30N 48°28' W 124°55'713.2
2017-Sep-23 20:00N 48°28' W 125°05'2827.9
2017-Sep-23 19:00N 48°30' W 125°48'31012.9 230 / 81018.8 1.1 13.0 13.0
2017-Sep-22 19:00N 48°42' W 133°36'33214.4 300 / 141024.510.8 12.0 12.0
2017-Sep-21 20:00N 49°48' W 141°54'32914.3 230 / 171026.7 0.3 13.0 13.0
2017-Sep-20 21:00N 50°18' W 150°24'   160 / 181026.4 0.3 11.0 11.0
Track history (hours):
 
Tides and Currents Weather Stations Pressure Air Temp Water Temp Dewpoint Dewpoint Depression Visibility Wind Speed Wind Dir Waves Ship Positions

Nsu Obelisk

Last reported at 2017-Sep-30 02:00 UTC. Time now 2017-Oct-19 23:30 UTC.
Position N 48°21' W 124°08'.
Warning: this ship's position is 19 days out of date.

Length 299 m; draft 17.6 m.

Type: Cargo ship. MMSI: 357348000.

Date/timePositionNaut miles runAvg speedWind from/ knotsBaromVisibWave heightAir tempDewpointWater temp
2017-Sep-30 02:00N 48°21' W 124°08'713.2
2017-Sep-30 01:30N 48°18' W 123°59'712.9
2017-Sep-30 01:00N 48°17' W 123°49'612.8
2017-Sep-30 00:30N 48°16' W 123°40'612.2
2017-Sep-29 23:59N 48°16' W 123°30'611.8
2017-Sep-29 23:30N 48°21' W 123°26'4 7.3
2017-Sep-29 23:00N 48°23' W 123°22'5 9.9
2017-Sep-29 22:30N 48°24' W 123°15'4 8.7
2017-Sep-29 22:00N 48°28' W 123°12'5 9.6
2017-Sep-29 21:30N 48°33' W 123°13'5 9.1
2017-Sep-29 21:00N 48°37' W 123°14'5 9.4
2017-Sep-29 20:30N 48°42' W 123°15'510.9
2017-Sep-29 20:00N 48°44' W 123°08'611.0
2017-Sep-29 19:30N 48°47' W 123°01'611.3
2017-Sep-29 19:00N 48°53' W 123°03'611.3
2017-Sep-29 18:30N 48°58' W 123°07'3 6.5
2017-Sep-29 18:00N 49°00' W 123°10'0 0.4
2017-Sep-29 17:28N 49°01' W 123°10'0 0.0
2017-Sep-29 16:55N 49°01' W 123°10'0 0.0
2017-Sep-29 16:28N 49°01' W 123°10'0 0.0
2017-Sep-29 15:58N 49°01' W 123°10'0 0.0
2017-Sep-29 15:25N 49°01' W 123°10'0 0.0
2017-Sep-29 14:55N 49°01' W 123°10'0 0.0
2017-Sep-29 14:25N 49°01' W 123°10'0 0.0
2017-Sep-29 13:58N 49°01' W 123°10'0 0.0
2017-Sep-29 12:43N 49°01' W 123°10'0 0.0
2017-Sep-29 12:19N 49°01' W 123°10'0 0.0
2017-Sep-29 11:55N 49°01' W 123°10'0 0.0
2017-Sep-29 11:25N 49°01' W 123°10'0 0.0
2017-Sep-29 10:49N 49°01' W 123°10'0 0.0
2017-Sep-29 10:28N 49°01' W 123°10'0 0.0
2017-Sep-29 09:49N 49°01' W 123°10'0 0.0
2017-Sep-29 09:25N 49°01' W 123°10'0 0.0
2017-Sep-29 08:55N 49°01' W 123°10'0 0.0
2017-Sep-29 08:25N 49°01' W 123°10'0 0.0
2017-Sep-29 07:58N 49°01' W 123°10'0 0.0
2017-Sep-29 07:28N 49°01' W 123°10'0 0.0
2017-Sep-29 06:58N 49°01' W 123°10'0 0.0
2017-Sep-29 06:28N 49°01' W 123°10'0 0.0
2017-Sep-29 05:58N 49°01' W 123°10'0 0.0
2017-Sep-29 05:25N 49°01' W 123°10'0 0.0
2017-Sep-29 04:55N 49°01' W 123°10'0 0.0
2017-Sep-29 04:13N 49°01' W 123°10'0 0.0
2017-Sep-29 03:55N 49°01' W 123°10'0 0.0
2017-Sep-29 03:25N 49°01' W 123°10'0 0.0
2017-Sep-29 02:58N 49°01' W 123°10'0 0.0
2017-Sep-29 02:28N 49°01' W 123°10'0 0.0
2017-Sep-29 01:58N 49°01' W 123°10'0 0.0
2017-Sep-29 01:25N 49°01' W 123°10'0 0.0
2017-Sep-29 00:58N 49°01' W 123°10'0 0.0
2017-Sep-29 00:28N 49°01' W 123°10'0 0.0
2017-Sep-28 23:55N 49°01' W 123°10'0 0.0
2017-Sep-28 23:19N 49°01' W 123°10'0 0.0
2017-Sep-28 22:58N 49°01' W 123°10'0 0.0
2017-Sep-28 22:28N 49°01' W 123°10'0 0.0
2017-Sep-28 21:58N 49°01' W 123°10'0 0.0
2017-Sep-28 21:28N 49°01' W 123°10'0 0.0
2017-Sep-28 20:58N 49°01' W 123°10'0 0.0
2017-Sep-28 20:28N 49°01' W 123°10'0 0.0
2017-Sep-28 19:55N 49°01' W 123°10'0 0.0
2017-Sep-28 19:19N 49°01' W 123°10'0 0.0
2017-Sep-28 18:58N 49°01' W 123°10'0 0.0
2017-Sep-28 18:25N 49°01' W 123°10'0 0.0
2017-Sep-28 17:55N 49°01' W 123°10'0 0.0
2017-Sep-28 17:25N 49°01' W 123°10'0 0.0
2017-Sep-28 16:49N 49°01' W 123°10'0 0.0
2017-Sep-28 16:28N 49°01' W 123°10'0 0.0
2017-Sep-28 15:58N 49°01' W 123°10'0 0.0
2017-Sep-28 15:28N 49°01' W 123°10'0 0.0
2017-Sep-28 14:58N 49°01' W 123°10'0 0.0
2017-Sep-28 14:25N 49°01' W 123°10'0 0.0
2017-Sep-28 13:55N 49°01' W 123°10'0 0.0
2017-Sep-28 13:25N 49°01' W 123°10'0 0.0
2017-Sep-28 12:58N 49°01' W 123°10'0 0.0
2017-Sep-28 12:28N 49°01' W 123°10'0 0.0
2017-Sep-28 11:55N 49°01' W 123°10'0 0.0
2017-Sep-28 11:25N 49°01' W 123°10'0 0.0
2017-Sep-28 10:55N 49°01' W 123°10'0 0.0
2017-Sep-28 10:28N 49°01' W 123°10'0 0.0
2017-Sep-28 09:58N 49°01' W 123°10'0 0.0
2017-Sep-28 09:25N 49°01' W 123°10'0 0.0
2017-Sep-28 08:55N 49°01' W 123°10'0 0.0
2017-Sep-28 08:25N 49°01' W 123°10'0 0.0
2017-Sep-28 07:58N 49°01' W 123°10'0 0.0
2017-Sep-28 07:28N 49°01' W 123°10'0 0.0
2017-Sep-28 06:55N 49°01' W 123°10'0 0.0
2017-Sep-28 06:25N 49°01' W 123°10'0 0.0
2017-Sep-28 05:55N 49°01' W 123°10'0 0.0
2017-Sep-28 05:28N 49°01' W 123°10'0 0.0
2017-Sep-28 04:58N 49°01' W 123°10'0 0.0
2017-Sep-28 04:28N 49°01' W 123°10'0 0.0
2017-Sep-28 03:55N 49°01' W 123°10'0 0.0
2017-Sep-28 03:25N 49°01' W 123°10'0 0.0
2017-Sep-28 02:55N 49°01' W 123°10'0 0.0
2017-Sep-28 02:28N 49°01' W 123°10'0 0.0
2017-Sep-28 01:58N 49°01' W 123°10'0 0.0
2017-Sep-28 01:28N 49°01' W 123°10'0 0.0
2017-Sep-28 00:55N 49°01' W 123°10'0 0.0
2017-Sep-28 00:25N 49°01' W 123°10'0 0.0
2017-Sep-27 23:58N 49°01' W 123°10'0 0.0
2017-Sep-27 23:25N 49°01' W 123°10'0 0.0
2017-Sep-27 22:55N 49°01' W 123°10'0 0.0
2017-Sep-27 22:25N 49°01' W 123°10'0 0.0
2017-Sep-27 21:49N 49°01' W 123°10'0 0.0
2017-Sep-27 21:25N 49°01' W 123°10'0 0.0
2017-Sep-27 20:43N 49°01' W 123°10'0 0.0
2017-Sep-27 20:25N 49°01' W 123°10'0 0.0
2017-Sep-27 19:55N 49°01' W 123°10'0 0.0
2017-Sep-27 19:19N 49°01' W 123°10'0 0.0
2017-Sep-27 18:55N 49°01' W 123°10'0 0.0
2017-Sep-27 18:28N 49°01' W 123°10'0 0.0
2017-Sep-27 17:58N 49°01' W 123°10'0 0.0
2017-Sep-27 17:25N 49°01' W 123°10'0 0.0
2017-Sep-27 16:55N 49°01' W 123°10'0 0.0
2017-Sep-27 16:28N 49°01' W 123°10'0 0.0
2017-Sep-27 15:43N 49°01' W 123°10'0 0.0
2017-Sep-27 15:28N 49°01' W 123°10'0 0.0
2017-Sep-27 14:58N 49°01' W 123°10'0 0.0
2017-Sep-27 14:28N 49°01' W 123°10'0 0.0
2017-Sep-27 13:58N 49°01' W 123°10'0 0.0
2017-Sep-27 13:25N 49°01' W 123°10'0 0.0
2017-Sep-27 12:58N 49°01' W 123°10'0 0.0
2017-Sep-27 12:07N 49°01' W 123°10'0 0.0
2017-Sep-27 11:55N 49°01' W 123°10'0 0.0
2017-Sep-27 11:28N 49°01' W 123°10'0 0.0
2017-Sep-27 10:58N 49°01' W 123°10'0 0.0
2017-Sep-27 10:28N 49°01' W 123°10'0 0.0
2017-Sep-27 09:58N 49°01' W 123°10'0 0.0
2017-Sep-27 09:28N 49°01' W 123°10'0 0.0
2017-Sep-27 08:55N 49°01' W 123°10'0 0.0
2017-Sep-27 08:25N 49°01' W 123°10'0 0.0
2017-Sep-27 07:58N 49°01' W 123°10'0 0.0
2017-Sep-27 07:28N 49°01' W 123°10'0 0.0
2017-Sep-27 06:55N 49°01' W 123°10'0 0.0
2017-Sep-27 05:49N 49°01' W 123°10'0 0.0
2017-Sep-27 05:19N 49°01' W 123°10'0 0.0
2017-Sep-27 04:58N 49°01' W 123°10'0 0.0
2017-Sep-27 04:25N 49°01' W 123°10'0 0.0
2017-Sep-27 03:58N 49°01' W 123°10'0 0.0
2017-Sep-27 03:28N 49°01' W 123°10'0 0.0
2017-Sep-27 02:40N 49°01' W 123°10'0 0.0
2017-Sep-27 02:28N 49°01' W 123°10'0 0.0
2017-Sep-27 01:55N 49°01' W 123°10'0 0.0
2017-Sep-27 01:07N 49°01' W 123°10'0 0.0
2017-Sep-27 00:52N 49°01' W 123°10'0 0.0
2017-Sep-27 00:28N 49°01' W 123°10'0 0.0
2017-Sep-26 23:52N 49°01' W 123°10'0 0.0
2017-Sep-26 23:28N 49°01' W 123°10'0 0.0
2017-Sep-26 22:55N 49°01' W 123°10'0 0.0
2017-Sep-26 22:28N 49°01' W 123°10'0 0.0
2017-Sep-26 21:58N 49°01' W 123°10'0 0.0
2017-Sep-26 21:25N 49°01' W 123°10'0 0.0
2017-Sep-26 20:43N 49°01' W 123°10'0 0.0
2017-Sep-26 20:22N 49°01' W 123°10'0 0.0
2017-Sep-26 19:58N 49°01' W 123°10'0 0.0
2017-Sep-26 19:25N 49°01' W 123°10'0 0.0
2017-Sep-26 18:55N 49°01' W 123°10'0 0.0
2017-Sep-26 18:25N 49°01' W 123°10'0 0.0
2017-Sep-26 17:52N 49°01' W 123°10'0 0.0
2017-Sep-26 17:22N 49°01' W 123°10'0 0.0
2017-Sep-26 16:58N 49°01' W 123°10'0 0.0
2017-Sep-26 16:25N 49°01' W 123°10'0 0.0
2017-Sep-26 15:58N 49°01' W 123°10'0 0.0
2017-Sep-26 15:01N 49°01' W 123°10'0 0.0
2017-Sep-26 14:55N 49°01' W 123°10'0 0.0
2017-Sep-26 14:19N 49°01' W 123°10'0 0.0
2017-Sep-26 13:55N 49°01' W 123°10'0 0.0
2017-Sep-26 13:25N 49°01' W 123°10'0 0.0
2017-Sep-26 12:55N 49°01' W 123°10'0 0.7
2017-Sep-26 12:30N 49°01' W 123°10'2 3.1
2017-Sep-26 12:00N 49°01' W 123°13'2 4.0
2017-Sep-26 11:31N 49°01' W 123°16'3 5.2
2017-Sep-26 11:00N 49°01' W 123°20'3 5.2
2017-Sep-26 10:31N 49°03' W 123°23'3 6.3
2017-Sep-26 10:00N 49°06' W 123°24'611.2
2017-Sep-26 09:30N 49°12' W 123°22'611.2
2017-Sep-26 09:00N 49°17' W 123°20'4 7.5
2017-Sep-26 08:31N 49°18' W 123°14'0 0.1
2017-Sep-26 07:58N 49°18' W 123°14'0 0.0
2017-Sep-26 07:28N 49°18' W 123°14'0 0.1
2017-Sep-26 07:01N 49°18' W 123°14'0 0.0
2017-Sep-26 06:31N 49°18' W 123°14'0 0.0
2017-Sep-26 05:58N 49°18' W 123°14'0 0.1
2017-Sep-26 05:28N 49°18' W 123°14'0 0.1
2017-Sep-26 04:58N 49°18' W 123°14'0 0.1
2017-Sep-26 04:22N 49°18' W 123°14'0 0.0
2017-Sep-26 03:58N 49°18' W 123°14'0 0.0
2017-Sep-26 03:28N 49°18' W 123°14'0 0.0
2017-Sep-26 02:58N 49°18' W 123°14'0 0.1
2017-Sep-26 02:28N 49°18' W 123°14'0 0.0
2017-Sep-26 01:58N 49°18' W 123°14'0 0.0
2017-Sep-26 01:28N 49°18' W 123°14'0 0.1
2017-Sep-26 00:58N 49°18' W 123°14'0 0.0
2017-Sep-26 00:28N 49°18' W 123°14'0 0.1
2017-Sep-25 23:58N 49°18' W 123°14'0 0.1
2017-Sep-25 23:31N 49°18' W 123°14'0 0.0
2017-Sep-25 22:58N 49°18' W 123°14'0 0.2
2017-Sep-25 22:31N 49°18' W 123°14'0 0.1
2017-Sep-25 21:58N 49°18' W 123°14'0 0.2
2017-Sep-25 21:31N 49°18' W 123°14'0 0.1
2017-Sep-25 20:58N 49°18' W 123°15'0 0.0
2017-Sep-25 20:13N 49°18' W 123°15'0 0.0
2017-Sep-25 19:55N 49°18' W 123°15'0 0.1
2017-Sep-25 19:25N 49°18' W 123°15'0 0.1
2017-Sep-25 18:58N 49°18' W 123°15'0 0.0
2017-Sep-25 18:25N 49°18' W 123°15'0 0.1
2017-Sep-25 17:58N 49°18' W 123°15'0 0.2
2017-Sep-25 17:25N 49°18' W 123°15'0 0.1
2017-Sep-25 17:01N 49°18' W 123°15'0 0.0
2017-Sep-25 16:25N 49°18' W 123°15'0 0.1
2017-Sep-25 15:58N 49°18' W 123°15'0 0.2
2017-Sep-25 15:28N 49°18' W 123°15'0 0.2
2017-Sep-25 14:58N 49°18' W 123°14'0 0.2
2017-Sep-25 14:31N 49°18' W 123°14'0 0.2
2017-Sep-25 13:58N 49°18' W 123°14'0 0.0
2017-Sep-25 13:28N 49°18' W 123°14'0 0.0
2017-Sep-25 12:55N 49°18' W 123°14'0 0.0
2017-Sep-25 12:28N 49°18' W 123°14'0 0.0
2017-Sep-25 11:58N 49°18' W 123°14'0 0.0
2017-Sep-25 11:28N 49°18' W 123°14'0 0.0
2017-Sep-25 10:58N 49°18' W 123°14'0 0.1
2017-Sep-25 10:28N 49°18' W 123°14'0 0.1
2017-Sep-25 09:58N 49°18' W 123°14'0 0.0
2017-Sep-25 09:28N 49°18' W 123°14'0 0.0
2017-Sep-25 08:58N 49°18' W 123°14'0 0.0
2017-Sep-25 08:31N 49°18' W 123°14'0 0.0
2017-Sep-25 08:01N 49°18' W 123°14'0 0.1
2017-Sep-25 07:31N 49°18' W 123°14'0 0.0
2017-Sep-25 06:58N 49°18' W 123°14'0 0.0
2017-Sep-25 06:28N 49°18' W 123°14'0 0.1
2017-Sep-25 05:58N 49°18' W 123°14'0 0.1
2017-Sep-25 05:31N 49°18' W 123°14'0 0.0
2017-Sep-25 04:58N 49°18' W 123°14'0 0.1
2017-Sep-25 04:28N 49°18' W 123°14'0 0.2
2017-Sep-25 03:58N 49°18' W 123°14'0 0.1
2017-Sep-25 03:31N 49°18' W 123°14'0 0.2
2017-Sep-25 03:01N 49°18' W 123°14'0 0.1
2017-Sep-25 02:28N 49°18' W 123°14'0 0.1
2017-Sep-25 01:58N 49°18' W 123°14'0 0.0
2017-Sep-25 01:31N 49°18' W 123°14'0 0.0
2017-Sep-25 00:58N 49°18' W 123°14'0 0.1
2017-Sep-25 00:28N 49°18' W 123°14'0 0.0
2017-Sep-25 00:01N 49°18' W 123°14'0 0.0
2017-Sep-24 23:31N 49°18' W 123°14'0 0.0
2017-Sep-24 23:01N 49°18' W 123°14'0 0.0
2017-Sep-24 22:28N 49°18' W 123°14'0 0.0
2017-Sep-24 22:01N 49°18' W 123°14'0 0.0
2017-Sep-24 21:28N 49°18' W 123°14'0 0.1
2017-Sep-24 21:01N 49°18' W 123°14'0 0.0
2017-Sep-24 20:31N 49°18' W 123°14'0 0.0
2017-Sep-24 19:58N 49°18' W 123°14'0 0.1
2017-Sep-24 19:28N 49°18' W 123°14'0 0.2
2017-Sep-24 18:58N 49°18' W 123°14'0 0.2
2017-Sep-24 18:28N 49°18' W 123°14'0 0.1
2017-Sep-24 17:58N 49°18' W 123°14'0 0.0
2017-Sep-24 17:28N 49°18' W 123°14'0 0.1
2017-Sep-24 16:58N 49°18' W 123°15'0 0.0
2017-Sep-24 16:28N 49°18' W 123°15'0 0.1
2017-Sep-24 16:01N 49°18' W 123°15'0 0.3
2017-Sep-24 15:31N 49°18' W 123°15'0 0.3
2017-Sep-24 15:01N 49°18' W 123°14'0 0.2
2017-Sep-24 14:28N 49°18' W 123°14'0 0.0
2017-Sep-24 13:58N 49°18' W 123°14'0 0.0
2017-Sep-24 13:28N 49°18' W 123°14'0 0.0
2017-Sep-24 12:58N 49°18' W 123°14'0 0.1
2017-Sep-24 12:28N 49°18' W 123°14'0 0.1
2017-Sep-24 11:58N 49°18' W 123°14'0 0.1
2017-Sep-24 11:28N 49°18' W 123°14'0 0.0
2017-Sep-24 10:58N 49°18' W 123°14'0 0.0
2017-Sep-24 10:28N 49°18' W 123°14'0 0.0
2017-Sep-24 10:01N 49°18' W 123°14'0 0.2
2017-Sep-24 09:28N 49°18' W 123°14'0 0.2
2017-Sep-24 08:58N 49°18' W 123°14'0 0.4
2017-Sep-24 08:28N 49°18' W 123°15'0 0.1
2017-Sep-24 08:00N 49°18' W 123°15'2 4.0
2017-Sep-24 07:30N 49°17' W 123°17'4 8.5
2017-Sep-24 07:00N 49°13' W 123°19'713.4
2017-Sep-24 06:30N 49°06' W 123°20'611.9
2017-Sep-24 06:00N 49°01' W 123°16'713.0
2017-Sep-24 05:30N 48°57' W 123°09'612.2
2017-Sep-24 05:00N 48°52' W 123°03'510.2
2017-Sep-24 04:30N 48°47' W 123°02'712.8
2017-Sep-24 03:59N 48°43' W 123°10'5 9.6
2017-Sep-24 03:30N 48°39' W 123°14'713.5
2017-Sep-24 03:00N 48°32' W 123°11'713.4
2017-Sep-24 02:30N 48°26' W 123°10'714.0
2017-Sep-24 02:00N 48°22' W 123°20'5 9.3
2017-Sep-24 01:31N 48°19' W 123°24'510.0
2017-Sep-24 01:01N 48°14' W 123°28'612.7
2017-Sep-24 00:31N 48°13' W 123°38'714.0
2017-Sep-24 00:00N 48°13' W 123°48'714.1
2017-Sep-23 23:29N 48°15' W 123°59'714.1
2017-Sep-23 23:00N 48°17' W 124°08'713.4
2017-Sep-23 22:30N 48°20' W 124°17'713.2
2017-Sep-23 22:00N 48°23' W 124°26'713.2
2017-Sep-23 21:30N 48°26' W 124°35'714.0
2017-Sep-23 21:00N 48°29' W 124°45'713.6
2017-Sep-23 20:30N 48°28' W 124°55'713.2
2017-Sep-23 20:00N 48°28' W 125°05'2827.9
2017-Sep-23 19:00N 48°30' W 125°48'31012.9 230 / 81018.8 1.1 13.0 13.0
2017-Sep-22 19:00N 48°42' W 133°36'33214.4 300 / 141024.510.8 12.0 12.0
2017-Sep-21 20:00N 49°48' W 141°54'32914.3 230 / 171026.7 0.3 13.0 13.0
2017-Sep-20 21:00N 50°18' W 150°24'   160 / 181026.4 0.3 11.0 11.0

Dump ship's entire track history